»·PEaware :: N4122T KHHR-KVCV

N4122T :: KHHR-KVCV

FLIGHT INFORMATION

Flight Status: Arrived
Operator: Privately registered:
United States
More flights under this callsign
Pilot: Ulli W. (2180)
Aircraft: CESSNA 172 SKYHAWK
(C172)
More flights by this aircraft type
Origin: KHHR Northrop/Hawthorne Mun
United States
Destination: KVCV Socal Logistics
United States
More flights between these airports :: More routes between these airports
Route: +LAX V165 LANGE V518 PMD
File this flight plan on PilotEdge
Remarks:
Altitude:
(Current/Filed)
0ft
Speed:
(Current/Filed)
0kts
Departed: 21-Nov-20 08:07 AM
Arrived: 21-Nov-20 09:12 AM
Distance/Time
Traveled:
62nm/1:05
Distance/Time
To Go:
Arrived

Flight Plot

Page will automatically refresh every two minutes.


Map Options




Map Legend


Flown Route
Filed Route
Departure Airport
Arrival Airport
Navaid (VOR, NDB)
Fix

Horizontal Profiles

Position Reports

Time Latitude Longitude Heading Altitude Ground
Speed
21-Nov-20 08:01 33.922155 -118.330309 358 66ft 0kts
21-Nov-20 08:02 33.922155 -118.330309 358 66ft 0kts
21-Nov-20 08:03 33.922155 -118.330309 358 66ft 0kts
21-Nov-20 08:04 33.922794 -118.327186 36 66ft 1kts
21-Nov-20 08:05 33.922866 -118.327170 356 66ft 0kts
21-Nov-20 08:06 33.922818 -118.334951 267 282ft 64kts
21-Nov-20 08:07 33.911690 -118.351018 213 1231ft 74kts
21-Nov-20 08:08 33.894731 -118.362249 209 2204ft 74kts
21-Nov-20 08:09 33.877962 -118.373658 217 3083ft 72kts
21-Nov-20 08:10 33.868194 -118.367079 24 3865ft 79kts
21-Nov-20 08:11 33.883023 -118.381762 334 4596ft 86kts
21-Nov-20 08:12 33.903890 -118.398406 323 5024ft 111kts
21-Nov-20 08:13 33.927434 -118.423291 314 4947ft 112kts
21-Nov-20 08:14 33.956121 -118.436348 354 4900ft 111kts
21-Nov-20 08:15 33.986949 -118.436417 0 4930ft 111kts
21-Nov-20 08:16 34.017530 -118.437453 353 4906ft 111kts
21-Nov-20 08:17 34.046172 -118.436675 353 5299ft 89kts
21-Nov-20 08:18 34.073045 -118.438966 347 5835ft 94kts
21-Nov-20 08:19 34.100016 -118.440916 358 6436ft 98kts
21-Nov-20 08:20 34.128090 -118.442104 350 6819ft 114kts
21-Nov-20 08:21 34.159027 -118.446494 348 7179ft 111kts
21-Nov-20 08:22 34.192958 -118.447285 357 6874ft 124kts
21-Nov-20 08:23 34.224587 -118.447376 352 6842ft 105kts
21-Nov-20 08:24 34.253982 -118.447950 351 7041ft 110kts
21-Nov-20 08:25 34.284855 -118.450420 354 7096ft 114kts
21-Nov-20 08:27 34.316628 -118.453652 353 7021ft 114kts
21-Nov-20 08:28 34.348372 -118.456266 356 6944ft 116kts
21-Nov-20 08:29 34.377233 -118.446507 67 6855ft 123kts
21-Nov-20 08:30 34.394882 -118.413112 56 6933ft 121kts
21-Nov-20 08:31 34.411833 -118.378507 52 6999ft 120kts
21-Nov-20 08:32 34.430856 -118.344885 51 7033ft 120kts
21-Nov-20 08:33 34.452701 -118.313958 43 7067ft 120kts
21-Nov-20 08:34 34.475288 -118.283966 50 7129ft 120kts
21-Nov-20 08:35 34.495873 -118.251344 41 7101ft 124kts
21-Nov-20 08:36 34.518554 -118.220376 51 7116ft 123kts
21-Nov-20 08:37 34.541929 -118.189306 45 7030ft 124kts
21-Nov-20 08:38 34.566138 -118.159232 41 6964ft 124kts
21-Nov-20 08:39 34.588587 -118.127826 58 6935ft 124kts
21-Nov-20 08:40 34.598685 -118.087810 84 6920ft 125kts
21-Nov-20 08:41 34.608071 -118.047476 69 6901ft 124kts
21-Nov-20 08:42 34.619242 -118.007742 64 6909ft 122kts
21-Nov-20 08:42 34.629266 -117.975351 66 6922ft 122kts
21-Nov-20 08:44 34.643696 -117.930505 66 6946ft 122kts
21-Nov-20 08:44 34.653414 -117.898215 65 6965ft 121kts
21-Nov-20 08:46 34.667096 -117.853721 67 6994ft 120kts
21-Nov-20 08:46 34.676890 -117.822173 66 7011ft 119kts
21-Nov-20 08:47 34.688617 -117.784697 62 7036ft 117kts
21-Nov-20 08:48 34.699671 -117.747783 62 7090ft 111kts
21-Nov-20 08:49 34.711397 -117.711957 64 7035ft 113kts
21-Nov-20 08:50 34.725482 -117.676147 62 6949ft 119kts
21-Nov-20 08:51 34.741206 -117.640108 65 6945ft 118kts
21-Nov-20 08:52 34.756720 -117.604150 65 6976ft 119kts
21-Nov-20 08:53 34.771504 -117.567645 66 7013ft 120kts
21-Nov-20 08:54 34.787051 -117.530979 64 7017ft 122kts
21-Nov-20 08:55 34.801973 -117.493961 67 6997ft 121kts
21-Nov-20 08:56 34.816812 -117.457053 67 6954ft 121kts
21-Nov-20 08:57 34.833186 -117.421082 60 6900ft 121kts
21-Nov-20 08:58 34.849691 -117.385776 64 6846ft 119kts
21-Nov-20 08:59 34.861325 -117.349284 100 6789ft 118kts
21-Nov-20 09:00 34.842466 -117.355403 236 6332ft 105kts
21-Nov-20 09:01 34.828633 -117.384551 238 5867ft 90kts
21-Nov-20 09:02 34.813440 -117.402257 163 5893ft 83kts
21-Nov-20 09:03 34.792327 -117.393327 167 6216ft 83kts
21-Nov-20 09:04 34.768672 -117.388599 183 6022ft 88kts
21-Nov-20 09:05 34.744221 -117.388977 176 5463ft 88kts
21-Nov-20 09:06 34.719833 -117.387978 181 4902ft 87kts
21-Nov-20 09:07 34.695535 -117.387617 179 4396ft 86kts
21-Nov-20 09:08 34.671223 -117.387460 178 3907ft 88kts
21-Nov-20 09:09 34.646868 -117.387279 175 3428ft 88kts
21-Nov-20 09:10 34.622887 -117.386804 173 2960ft 81kts
21-Nov-20 09:11 34.611098 -117.386638 150 2888ft 27kts
21-Nov-20 09:12 34.609410 -117.384175 173 2888ft 24kts
21-Nov-20 09:13 34.601873 -117.384134 180 2888ft 26kts
21-Nov-20 09:14 34.594812 -117.383745 156 2888ft 25kts
21-Nov-20 09:15 34.589707 -117.377758 136 2888ft 25kts

Navigation Log

Ident Type
Flight plan parsing failed, navigation log unavailable